createdAt,value
2023-04-15T00:02:20.425Z,6.30
2023-04-15T00:05:06.396Z,6.10
2023-04-15T00:07:51.881Z,7.70
2023-04-15T00:10:37.370Z,7.40
2023-04-15T00:13:22.622Z,6.87
2023-04-15T00:16:09.263Z,7.20
2023-04-15T00:18:54.770Z,6.90
2023-04-15T00:21:39.908Z,8.17
2023-04-15T00:24:25.236Z,6.77
2023-04-15T00:27:10.640Z,6.93
2023-04-15T00:29:56.343Z,8.47
2023-04-15T00:32:42.413Z,6.60
2023-04-15T00:35:28.137Z,7.33
2023-04-15T00:38:13.448Z,7.87
2023-04-15T00:41:00.815Z,6.73
2023-04-15T00:43:46.065Z,7.27
2023-04-15T00:46:33.649Z,5.97
2023-04-15T00:49:19.375Z,5.50
2023-04-15T00:52:04.900Z,6.13
2023-04-15T00:54:51.541Z,7.00
2023-04-15T00:57:37.186Z,5.27
2023-04-15T01:00:22.825Z,5.70
2023-04-15T01:03:09.040Z,5.63
2023-04-15T01:05:58.372Z,7.30
2023-04-15T01:08:44.298Z,5.23
2023-04-15T01:11:30.683Z,8.17
2023-04-15T01:14:16.340Z,4.93
2023-04-15T01:17:02.278Z,5.83
2023-04-15T01:19:47.884Z,5.83
2023-04-15T01:22:34.489Z,5.90
2023-04-15T01:25:42.005Z,6.07
2023-04-15T01:28:28.480Z,5.10
2023-04-15T01:31:15.209Z,6.63
2023-04-15T01:34:00.951Z,4.13
2023-04-15T01:36:46.853Z,4.43
2023-04-15T01:39:32.608Z,4.87
2023-04-15T01:42:17.852Z,6.33
2023-04-15T01:45:03.655Z,4.27
2023-04-15T01:47:49.408Z,5.07
2023-04-15T01:50:36.952Z,5.40
2023-04-15T01:53:22.140Z,5.37
2023-04-15T01:56:08.163Z,3.87
2023-04-15T01:58:53.834Z,5.37
2023-04-15T02:01:39.757Z,4.23
2023-04-15T02:04:25.090Z,4.23
2023-04-15T02:07:10.563Z,4.10
2023-04-15T02:09:55.903Z,4.43
2023-04-15T02:12:41.201Z,4.67
2023-04-15T02:15:26.396Z,5.57
2023-04-15T02:18:11.790Z,4.03
2023-04-15T02:20:58.690Z,4.07
2023-04-15T02:23:47.044Z,4.67
2023-04-15T02:26:33.430Z,4.77
2023-04-15T02:29:18.789Z,4.77
2023-04-15T02:32:04.472Z,4.13
2023-04-15T02:34:49.742Z,4.77
2023-04-15T02:37:41.659Z,4.37
2023-04-15T02:40:28.006Z,5.13
2023-04-15T02:43:13.536Z,4.43
2023-04-15T02:45:58.949Z,4.33
2023-04-15T02:48:45.998Z,3.73
2023-04-15T02:51:32.351Z,4.87
2023-04-15T02:54:19.781Z,4.83
2023-04-15T02:57:06.840Z,4.70
2023-04-15T02:59:52.381Z,3.47
2023-04-15T03:02:39.496Z,3.80
2023-04-15T03:05:25.953Z,4.40
2023-04-15T03:08:11.740Z,4.37
2023-04-15T03:11:00.737Z,4.53
2023-04-15T03:13:46.414Z,3.63
2023-04-15T03:16:45.850Z,3.63
2023-04-15T03:19:34.323Z,4.73
2023-04-15T03:22:20.175Z,3.27
2023-04-15T03:25:07.012Z,3.60
2023-04-15T03:27:52.252Z,4.73
2023-04-15T03:30:37.573Z,4.27
2023-04-15T03:33:22.820Z,4.00
2023-04-15T03:36:08.193Z,4.50
2023-04-15T03:38:53.520Z,4.03
2023-04-15T03:41:38.758Z,3.93
2023-04-15T03:44:24.220Z,3.10
2023-04-15T03:47:09.517Z,3.00
2023-04-15T03:49:54.743Z,3.60
2023-04-15T03:52:40.073Z,4.30
2023-04-15T03:55:25.586Z,4.23
2023-04-15T03:58:13.044Z,3.60
2023-04-15T04:00:58.444Z,3.47
2023-04-15T04:03:43.867Z,4.53
2023-04-15T04:06:29.471Z,4.23
2023-04-15T04:09:14.884Z,4.03
2023-04-15T04:12:00.285Z,3.03
2023-04-15T04:14:45.663Z,3.13
2023-04-15T04:17:31.297Z,3.37
2023-04-15T04:20:17.304Z,3.60
2023-04-15T04:23:02.597Z,3.37
2023-04-15T04:25:47.963Z,2.70
2023-04-15T04:28:33.409Z,3.23
2023-04-15T04:31:19.538Z,2.70
2023-04-15T04:34:04.891Z,3.27
2023-04-15T04:36:50.242Z,2.73
2023-04-15T04:39:35.957Z,2.77
2023-04-15T04:42:22.291Z,2.23
2023-04-15T04:45:08.737Z,3.53
2023-04-15T04:47:53.920Z,4.97
2023-04-15T04:50:39.450Z,2.67
2023-04-15T04:53:24.945Z,2.83
2023-04-15T04:56:10.258Z,2.57
2023-04-15T04:58:56.622Z,2.27
2023-04-15T05:01:42.184Z,2.80
2023-04-15T05:04:28.160Z,3.00
2023-04-15T05:07:13.661Z,2.57
2023-04-15T05:09:58.927Z,2.37
2023-04-15T05:12:44.391Z,3.40
2023-04-15T05:15:30.027Z,3.07
2023-04-15T05:18:15.721Z,2.90
2023-04-15T05:21:02.954Z,3.30
2023-04-15T05:23:48.467Z,3.83
2023-04-15T05:26:33.758Z,2.47
2023-04-15T05:29:19.252Z,2.60
2023-04-15T05:32:05.258Z,3.07
2023-04-15T05:34:51.118Z,2.33
2023-04-15T05:37:36.639Z,3.23
2023-04-15T05:40:22.367Z,4.60
2023-04-15T05:43:08.324Z,5.63
2023-04-15T05:45:54.039Z,3.07
2023-04-15T05:48:39.376Z,3.77
2023-04-15T05:51:24.609Z,2.53
2023-04-15T05:54:10.128Z,2.50
2023-04-15T05:56:56.438Z,4.60
2023-04-15T05:59:42.522Z,2.07
2023-04-15T06:02:28.160Z,2.97
2023-04-15T06:05:14.454Z,3.97
2023-04-15T06:07:59.670Z,3.17
2023-04-15T06:10:45.048Z,3.90
2023-04-15T06:13:35.404Z,3.37
2023-04-15T06:16:23.842Z,3.40
2023-04-15T06:19:12.553Z,2.63
2023-04-15T06:21:58.827Z,4.07
2023-04-15T06:24:44.310Z,3.60
2023-04-15T06:27:30.052Z,4.00
2023-04-15T06:30:15.390Z,3.47
2023-04-15T06:33:01.575Z,2.90
2023-04-15T06:35:47.684Z,5.47
2023-04-15T06:38:32.836Z,6.30
2023-04-15T06:41:18.239Z,5.20
2023-04-15T06:44:05.642Z,6.37
2023-04-15T06:46:58.117Z,4.77
2023-04-15T06:50:15.410Z,7.05
2023-04-15T06:53:05.095Z,5.17
2023-04-15T06:55:53.691Z,4.53
2023-04-15T06:58:39.122Z,5.63
2023-04-15T07:01:24.703Z,4.97
2023-04-15T07:04:11.176Z,4.23
2023-04-15T07:06:58.307Z,4.27
2023-04-15T07:09:45.582Z,4.90
2023-04-15T07:12:32.222Z,3.87
2023-04-15T07:15:17.839Z,3.90
2023-04-15T07:18:03.526Z,3.40
2023-04-15T07:20:49.045Z,2.90
2023-04-15T07:23:34.289Z,7.17
2023-04-15T07:26:19.721Z,3.97
2023-04-15T07:29:05.068Z,3.37
2023-04-15T07:31:50.489Z,4.03
2023-04-15T07:34:38.123Z,2.40
2023-04-15T07:37:24.444Z,4.63
2023-04-15T07:40:10.746Z,3.53
2023-04-15T07:42:57.321Z,3.13
2023-04-15T07:45:43.521Z,3.50
2023-04-15T07:48:31.704Z,2.13
2023-04-15T07:51:17.820Z,3.30
2023-04-15T07:54:04.469Z,4.17
2023-04-15T07:56:50.585Z,2.73
2023-04-15T07:59:35.949Z,4.37
2023-04-15T08:02:22.735Z,4.10
2023-04-15T08:05:09.758Z,2.40
2023-04-15T08:07:55.318Z,2.93
2023-04-15T08:10:42.544Z,4.10
2023-04-15T08:13:28.237Z,2.10
2023-04-15T08:16:22.724Z,2.77
2023-04-15T08:19:08.229Z,3.53
2023-04-15T08:21:56.654Z,1.37
2023-04-15T08:24:42.848Z,2.63
2023-04-15T08:27:28.653Z,3.97
2023-04-15T08:30:15.019Z,2.03
2023-04-15T08:33:04.571Z,2.67
2023-04-15T08:35:50.219Z,2.17
2023-04-15T08:38:38.115Z,4.93
2023-04-15T08:41:28.032Z,15.63
2023-04-15T08:44:17.830Z,21.63
2023-04-15T08:47:08.003Z,17.03
2023-04-15T08:49:55.640Z,12.67
2023-04-15T08:52:42.725Z,8.00
2023-04-15T08:55:36.435Z,8.17
2023-04-15T08:58:26.765Z,14.17
2023-04-15T09:01:18.388Z,13.73
2023-04-15T09:04:09.203Z,14.18
2023-04-15T09:06:54.734Z,11.10
2023-04-15T09:09:42.225Z,11.97
2023-04-15T09:12:30.061Z,13.17
2023-04-15T09:15:18.756Z,10.13
2023-04-15T09:18:05.935Z,13.37
2023-04-15T09:20:53.616Z,11.43
2023-04-15T09:23:41.348Z,11.00
2023-04-15T09:26:35.020Z,9.83
2023-04-15T09:29:21.123Z,9.00
2023-04-15T09:32:14.071Z,9.83
2023-04-15T09:35:11.242Z,10.65
2023-04-15T09:38:07.443Z,11.07
2023-04-15T09:40:52.692Z,8.47
2023-04-15T09:43:40.045Z,7.77
2023-04-15T09:46:46.250Z,12.47
2023-04-15T09:49:32.020Z,11.53
2023-04-15T09:52:17.344Z,10.50
2023-04-15T09:55:02.661Z,12.70
2023-04-15T09:57:48.273Z,8.07
2023-04-15T10:00:34.082Z,7.87
2023-04-15T10:03:22.182Z,9.63
2023-04-15T10:06:09.182Z,6.80
2023-04-15T10:08:56.494Z,9.67
2023-04-15T10:11:43.458Z,10.03
2023-04-15T10:14:32.993Z,12.77
2023-04-15T10:17:18.704Z,12.83
2023-04-15T10:20:05.762Z,7.63
2023-04-15T10:22:53.030Z,7.33
2023-04-15T10:25:38.974Z,10.13
2023-04-15T10:28:24.871Z,8.20
2023-04-15T10:31:13.817Z,6.93
2023-04-15T10:34:04.321Z,7.27
2023-04-15T10:36:50.235Z,6.00
2023-04-15T10:39:43.899Z,8.47
2023-04-15T10:42:35.332Z,7.17
2023-04-15T10:45:22.394Z,8.53
2023-04-15T10:48:09.227Z,8.67
2023-04-15T10:51:05.183Z,8.50
2023-04-15T10:53:50.645Z,6.73
2023-04-15T10:56:35.961Z,8.57
2023-04-15T10:59:22.447Z,8.03
2023-04-15T11:02:53.782Z,9.07
2023-04-15T11:05:39.604Z,5.27
2023-04-15T11:08:50.421Z,5.07
2023-04-15T11:12:09.793Z,9.77
2023-04-15T11:14:55.431Z,7.40
2023-04-15T11:17:41.311Z,7.57
2023-04-15T11:20:27.561Z,9.43
2023-04-15T11:23:15.746Z,8.23
2023-04-15T11:26:06.594Z,5.30
2023-04-15T11:28:52.909Z,7.67
2023-04-15T11:31:38.799Z,6.07
2023-04-15T11:34:24.166Z,7.93
2023-04-15T11:37:10.215Z,6.57
2023-04-15T11:39:55.898Z,8.37
2023-04-15T11:42:49.561Z,6.37
2023-04-15T11:45:37.846Z,7.60
2023-04-15T11:48:27.428Z,9.53
2023-04-15T11:51:14.531Z,8.23
2023-04-15T11:54:00.793Z,8.50
2023-04-15T11:56:51.845Z,10.10
2023-04-15T11:59:45.777Z,8.97
2023-04-15T12:02:33.161Z,11.93
2023-04-15T12:05:19.015Z,9.30
2023-04-15T12:08:04.387Z,8.97
2023-04-15T12:10:49.979Z,7.47
2023-04-15T12:13:35.502Z,7.03
2023-04-15T12:16:22.356Z,6.17
2023-04-15T12:19:11.528Z,9.93
2023-04-15T12:22:02.583Z,5.63
2023-04-15T12:24:54.170Z,6.10
2023-04-15T12:27:39.445Z,8.57
2023-04-15T12:30:24.690Z,6.27
2023-04-15T12:33:10.478Z,6.93
2023-04-15T12:35:55.850Z,6.73
2023-04-15T12:38:41.370Z,4.10
2023-04-15T12:41:27.176Z,7.30
2023-04-15T12:44:12.791Z,5.17
2023-04-15T12:47:03.225Z,5.73
2023-04-15T12:49:49.751Z,6.73
2023-04-15T12:52:35.626Z,7.73
2023-04-15T12:55:21.707Z,5.90
2023-04-15T12:58:07.291Z,4.03
2023-04-15T13:00:53.710Z,5.90
2023-04-15T13:03:40.550Z,6.13
2023-04-15T13:06:26.247Z,7.90
2023-04-15T13:09:13.702Z,5.80
2023-04-15T13:11:59.643Z,4.33
2023-04-15T13:14:46.113Z,4.53
2023-04-15T13:17:31.746Z,2.93
2023-04-15T13:20:17.417Z,3.77
2023-04-15T13:23:03.128Z,3.50
2023-04-15T13:25:48.634Z,4.23
2023-04-15T13:28:34.711Z,4.17
2023-04-15T13:31:20.579Z,4.00
2023-04-15T13:34:06.443Z,3.77
2023-04-15T13:36:52.264Z,3.87
2023-04-15T13:39:37.616Z,4.27
2023-04-15T13:42:24.079Z,4.67
2023-04-15T13:45:10.168Z,4.37
2023-04-15T13:47:57.268Z,5.40
2023-04-15T13:50:45.442Z,4.63
2023-04-15T13:53:38.228Z,5.50
2023-04-15T13:56:24.945Z,4.53
2023-04-15T13:59:10.835Z,5.17
2023-04-15T14:01:56.661Z,6.07
2023-04-15T14:04:42.421Z,5.87
2023-04-15T14:07:29.829Z,3.67
2023-04-15T14:10:15.267Z,2.77
2023-04-15T14:13:00.620Z,3.80
2023-04-15T14:15:45.989Z,5.47
2023-04-15T14:18:31.450Z,3.17
2023-04-15T14:21:16.650Z,5.17
2023-04-15T14:24:01.948Z,4.13
2023-04-15T14:26:48.322Z,3.67
2023-04-15T14:29:33.602Z,4.53
2023-04-15T14:32:19.029Z,4.80
2023-04-15T14:35:04.540Z,3.77
2023-04-15T14:37:50.318Z,4.90
2023-04-15T14:40:35.709Z,5.43
2023-04-15T14:43:21.873Z,7.50
2023-04-15T14:46:08.611Z,3.37
2023-04-15T14:48:55.687Z,5.53
2023-04-15T14:51:41.882Z,4.17
2023-04-15T14:54:27.362Z,3.47
2023-04-15T14:57:13.954Z,3.97
2023-04-15T14:59:59.873Z,3.03
2023-04-15T15:02:47.485Z,3.63
2023-04-15T15:05:33.828Z,3.53
2023-04-15T15:08:19.456Z,8.87
2023-04-15T15:11:06.042Z,3.50
2023-04-15T15:13:53.237Z,4.37
2023-04-15T15:16:39.094Z,4.30
2023-04-15T15:19:25.008Z,3.60
2023-04-15T15:22:10.629Z,4.17
2023-04-15T15:24:59.339Z,4.23
2023-04-15T15:27:44.743Z,5.13
2023-04-15T15:30:30.761Z,4.00
2023-04-15T15:33:16.909Z,4.50
2023-04-15T15:36:03.286Z,4.13
2023-04-15T15:38:49.307Z,3.40
2023-04-15T15:41:40.451Z,6.10
2023-04-15T15:44:26.204Z,11.47
2023-04-15T15:47:11.897Z,7.00
2023-04-15T15:50:00.524Z,7.30
2023-04-15T15:52:46.504Z,6.77
2023-04-15T15:55:31.954Z,5.23
2023-04-15T15:58:17.588Z,7.40
2023-04-15T16:01:03.124Z,7.00
2023-04-15T16:03:48.860Z,5.80
2023-04-15T16:06:35.399Z,5.83
2023-04-15T16:09:21.825Z,4.53
2023-04-15T16:12:07.086Z,7.10
2023-04-15T16:14:53.251Z,5.37
2023-04-15T16:17:39.389Z,7.83
2023-04-15T16:20:25.143Z,4.37
2023-04-15T16:23:16.192Z,5.37
2023-04-15T16:26:01.612Z,5.10
2023-04-15T16:28:46.905Z,5.50
2023-04-15T16:31:32.259Z,5.40
2023-04-15T16:34:18.640Z,7.30
2023-04-15T16:37:07.300Z,3.47
2023-04-15T16:39:53.404Z,7.03
2023-04-15T16:42:39.799Z,4.57
2023-04-15T16:45:25.406Z,6.40
2023-04-15T16:48:11.012Z,6.23
2023-04-15T16:50:57.206Z,5.70
2023-04-15T16:53:44.314Z,6.43
2023-04-15T16:56:29.767Z,6.17
2023-04-15T16:59:14.931Z,5.77
2023-04-15T17:02:00.750Z,5.30
2023-04-15T17:04:46.321Z,3.67
2023-04-15T17:07:32.117Z,5.30
2023-04-15T17:10:17.588Z,5.37
2023-04-15T17:13:03.076Z,8.00
2023-04-15T17:15:48.614Z,4.13
2023-04-15T17:18:34.408Z,4.07
2023-04-15T17:21:19.983Z,4.63
2023-04-15T17:24:06.292Z,3.83
2023-04-15T17:26:53.786Z,6.10
2023-04-15T17:29:39.549Z,5.70
2023-04-15T17:32:32.027Z,4.43
2023-04-15T17:35:24.943Z,5.57
2023-04-15T17:38:11.742Z,3.07
2023-04-15T17:40:57.184Z,3.13
2023-04-15T17:43:43.101Z,3.57
2023-04-15T17:46:28.918Z,4.27
2023-04-15T17:49:14.409Z,4.13
2023-04-15T17:52:01.285Z,4.60
2023-04-15T17:54:46.993Z,3.40
2023-04-15T17:57:32.716Z,4.93
2023-04-15T18:00:18.234Z,2.67
2023-04-15T18:03:04.488Z,3.53
2023-04-15T18:05:50.727Z,4.03
2023-04-15T18:08:36.802Z,4.23
2023-04-15T18:11:22.771Z,5.33
2023-04-15T18:14:08.835Z,3.30
2023-04-15T18:16:54.675Z,4.47
2023-04-15T18:19:41.780Z,8.63
2023-04-15T18:22:28.362Z,3.20
2023-04-15T18:25:13.941Z,8.87
2023-04-15T18:27:59.951Z,7.83
2023-04-15T18:30:45.790Z,6.17
2023-04-15T18:33:31.224Z,8.90
2023-04-15T18:36:17.340Z,6.57
2023-04-15T18:39:02.917Z,9.27
2023-04-15T18:41:48.917Z,8.17
2023-04-15T18:44:34.290Z,7.60
2023-04-15T18:47:20.710Z,7.73
2023-04-15T18:50:09.636Z,6.30
2023-04-15T18:52:58.200Z,8.47
2023-04-15T18:55:44.805Z,8.37
2023-04-15T18:59:19.053Z,7.40
2023-04-15T19:01:44.183Z,8.77
2023-04-15T19:04:30.638Z,7.30
2023-04-15T19:07:16.585Z,8.80
2023-04-15T19:10:06.493Z,8.13
2023-04-15T19:12:52.168Z,11.43
2023-04-15T19:15:37.703Z,7.70
2023-04-15T19:18:22.798Z,7.03
2023-04-15T19:21:08.603Z,8.07
2023-04-15T19:23:56.637Z,7.67
2023-04-15T19:26:42.776Z,8.87
2023-04-15T19:29:31.327Z,7.80
2023-04-15T19:32:17.636Z,8.17
2023-04-15T19:35:03.390Z,10.43
2023-04-15T19:37:49.240Z,8.57
2023-04-15T19:40:34.741Z,7.90
2023-04-15T19:43:20.145Z,8.00
2023-04-15T19:46:06.731Z,9.13
2023-04-15T19:48:53.322Z,6.13
2023-04-15T19:51:39.954Z,9.60
2023-04-15T19:54:26.128Z,11.00
2023-04-15T19:57:11.609Z,8.37
2023-04-15T19:59:57.594Z,9.53
2023-04-15T20:02:42.996Z,8.13
2023-04-15T20:05:29.512Z,6.70
2023-04-15T20:08:15.451Z,6.87
2023-04-15T20:11:01.732Z,11.30
2023-04-15T20:13:47.418Z,10.23
2023-04-15T20:16:34.960Z,6.83
2023-04-15T20:19:20.618Z,7.53
2023-04-15T20:22:05.994Z,7.00
2023-04-15T20:24:51.325Z,9.53
2023-04-15T20:27:36.806Z,7.17
2023-04-15T20:30:22.564Z,8.97
2023-04-15T20:33:08.318Z,6.23
2023-04-15T20:35:54.611Z,7.67
2023-04-15T20:38:40.644Z,7.00
2023-04-15T20:41:26.473Z,6.77
2023-04-15T20:44:12.129Z,6.87
2023-04-15T20:46:58.007Z,7.40
2023-04-15T20:49:43.422Z,8.83
2023-04-15T20:52:29.146Z,9.67
2023-04-15T20:55:15.027Z,9.97
2023-04-15T20:58:00.491Z,6.07
2023-04-15T21:00:46.261Z,6.03
2023-04-15T21:03:31.540Z,5.63
2023-04-15T21:06:17.940Z,5.13
2023-04-15T21:09:03.449Z,6.27
2023-04-15T21:14:39.647Z,6.80
2023-04-15T21:17:25.137Z,7.80
2023-04-15T21:20:11.343Z,5.63
2023-04-15T21:22:56.581Z,6.17
2023-04-15T21:25:41.900Z,7.70
2023-04-15T21:28:30.630Z,8.63
2023-04-15T21:31:16.292Z,6.73
2023-04-15T21:34:02.155Z,5.17
2023-04-15T21:36:47.875Z,5.10
2023-04-15T21:39:33.174Z,7.03
2023-04-15T21:42:18.910Z,5.90
2023-04-15T21:45:04.535Z,6.57
2023-04-15T21:48:05.870Z,8.27
2023-04-15T21:51:01.660Z,6.37
2023-04-15T21:53:47.090Z,6.20
2023-04-15T21:56:32.893Z,6.73
2023-04-15T21:59:18.358Z,7.57
2023-04-15T22:02:03.733Z,6.23
2023-04-15T22:04:48.799Z,5.73
2023-04-15T22:07:34.420Z,9.43
2023-04-15T22:10:20.865Z,7.97
2023-04-15T22:13:08.764Z,6.20
2023-04-15T22:15:54.364Z,5.33
2023-04-15T22:18:39.646Z,6.57
2023-04-15T22:21:25.013Z,4.97
2023-04-15T22:24:39.274Z,5.97
2023-04-15T22:27:15.983Z,6.27
2023-04-15T22:30:01.246Z,6.47
2023-04-15T22:32:46.666Z,4.73
2023-04-15T22:35:31.812Z,5.10
2023-04-15T22:38:17.173Z,4.67
2023-04-15T22:41:02.399Z,5.93
2023-04-15T22:43:47.695Z,4.43
2023-04-15T22:46:33.378Z,4.20
2023-04-15T22:49:18.797Z,5.87
2023-04-15T22:52:04.295Z,4.30
2023-04-15T22:54:49.576Z,4.90
2023-04-15T22:57:34.722Z,4.30
2023-04-15T23:00:20.119Z,4.20
2023-04-15T23:03:05.728Z,4.23
2023-04-15T23:05:52.978Z,4.20
2023-04-15T23:08:39.172Z,5.20
2023-04-15T23:11:24.372Z,4.73
2023-04-15T23:14:09.673Z,3.37
2023-04-15T23:16:55.224Z,3.03
2023-04-15T23:19:40.843Z,3.80
2023-04-15T23:22:26.109Z,3.83
2023-04-15T23:25:11.355Z,4.00
2023-04-15T23:27:56.794Z,4.17
2023-04-15T23:30:42.136Z,4.33
2023-04-15T23:33:27.436Z,4.60
2023-04-15T23:36:12.733Z,4.63
2023-04-15T23:38:58.007Z,4.57
2023-04-15T23:41:43.153Z,3.63
2023-04-15T23:44:28.424Z,4.90
2023-04-15T23:47:13.827Z,4.07
2023-04-15T23:49:58.934Z,7.57
2023-04-15T23:52:44.386Z,4.43
2023-04-15T23:55:30.779Z,5.17
2023-04-15T23:58:16.092Z,4.20
